Arthur, West Virginia
Current Conditions -  °F | °C
As of 10:55 PM on Thursday 27 Nov 2014 (Local Time) from KW99 Reporting Station
Overcast Overcast  
Wind Chill: -4°   Ceiling: 7000
Heat Index:   Visibility: 10mi
Dew Point: -8°   Wind: 8mph
Humidity: 56%   Direction: 320°NW
Pressure: 30.23"   Gusts: NA
Location:  38.9337°N, 79.1435°W
Report Text: KW99 280355Z AUTO 32007KT 10SM OVC070 00/M08 A3023 RMK AO2 T00011078
Loading
Personal Weather Stations






























Interactive Weather Map New forecast layout! Learn more

10-Day Weather Forecast

Advertisements
Track Severe Weather on mobile